createdAt,value
2018-03-04T00:00:23.295Z,97051
2018-03-04T00:02:50.873Z,97058
2018-03-04T00:05:18.443Z,97060
2018-03-04T00:07:46.019Z,97060
2018-03-04T00:10:13.690Z,97058
2018-03-04T00:12:42.039Z,97051
2018-03-04T00:15:09.611Z,97043
2018-03-04T00:17:37.187Z,97052
2018-03-04T00:20:06.571Z,97057
2018-03-04T00:22:40.967Z,97065
2018-03-04T00:25:08.544Z,97064
2018-03-04T00:27:37.323Z,97063
2018-03-04T00:30:05.347Z,97072
2018-03-04T00:32:32.934Z,97077
2018-03-04T00:35:00.564Z,97068
2018-03-04T00:37:28.915Z,97070
2018-03-04T00:39:57.254Z,97069
2018-03-04T00:42:24.840Z,97068
2018-03-04T00:44:52.458Z,97068
2018-03-04T00:47:20.119Z,97061
2018-03-04T00:49:47.699Z,97076
2018-03-04T00:52:15.318Z,97075
2018-03-04T00:54:42.930Z,97078
2018-03-04T00:57:10.544Z,97090
2018-03-04T00:59:39.535Z,97086
2018-03-04T01:02:07.207Z,97084
2018-03-04T01:04:41.372Z,97073
2018-03-04T01:07:08.941Z,97067
2018-03-04T01:09:37.880Z,97068
2018-03-04T01:12:07.593Z,97071
2018-03-04T01:14:35.266Z,97068
2018-03-04T01:17:02.912Z,97081
2018-03-04T01:19:31.256Z,97072
2018-03-04T01:21:58.845Z,97072
2018-03-04T01:24:27.177Z,97080
2018-03-04T01:26:54.765Z,97076
2018-03-04T01:29:22.342Z,97080
2018-03-04T01:31:50.691Z,97078
2018-03-04T01:34:18.287Z,97076
2018-03-04T01:36:46.675Z,97080
2018-03-04T01:39:15.034Z,97083
2018-03-04T01:41:42.695Z,97090
2018-03-04T01:44:11.075Z,97087
2018-03-04T01:46:38.656Z,97083
2018-03-04T01:49:07.008Z,97092
2018-03-04T01:54:29.501Z,97088
2018-03-04T01:56:57.877Z,97083
2018-03-04T01:59:26.244Z,97088
2018-03-04T02:01:53.920Z,97086
2018-03-04T02:04:22.265Z,97092
2018-03-04T02:06:49.849Z,97087
2018-03-04T02:09:17.425Z,97078
2018-03-04T02:11:45.775Z,97091
2018-03-04T02:14:13.452Z,97088
2018-03-04T02:16:41.126Z,97086
2018-03-04T02:19:09.462Z,97083
2018-03-04T02:21:37.045Z,97071
2018-03-04T02:24:06.748Z,97069
2018-03-04T02:26:34.317Z,97081
2018-03-04T02:29:02.672Z,97077
2018-03-04T02:31:30.246Z,97081
2018-03-04T02:33:57.834Z,97068
2018-03-04T02:36:26.179Z,97073
2018-03-04T02:38:53.756Z,97074
2018-03-04T02:41:21.332Z,97075
2018-03-04T02:43:49.705Z,97077
2018-03-04T02:46:18.098Z,97066
2018-03-04T02:48:46.560Z,97067
2018-03-04T02:51:14.902Z,97068
2018-03-04T02:53:42.477Z,97077
2018-03-04T02:56:10.071Z,97069
2018-03-04T02:58:38.469Z,97061
2018-03-04T03:01:07.140Z,97066
2018-03-04T03:03:36.849Z,97051
2018-03-04T03:06:06.240Z,97048
2018-03-04T03:08:33.800Z,97060
2018-03-04T03:11:01.375Z,97056
2018-03-04T03:13:29.710Z,97059
2018-03-04T03:15:57.277Z,97052
2018-03-04T03:18:24.868Z,97059
2018-03-04T03:20:52.429Z,97054
2018-03-04T03:23:20.822Z,97058
2018-03-04T03:25:49.156Z,97068
2018-03-04T03:28:16.750Z,97064
2018-03-04T03:30:45.131Z,97060
2018-03-04T03:33:13.473Z,97056
2018-03-04T03:35:41.071Z,97050
2018-03-04T03:38:09.408Z,97064
2018-03-04T03:40:36.973Z,97055
2018-03-04T03:43:04.539Z,97053
2018-03-04T03:45:32.100Z,97059
2018-03-04T03:47:59.664Z,97046
2018-03-04T03:50:27.257Z,97050
2018-03-04T03:52:55.598Z,97044
2018-03-04T03:55:23.196Z,97057
2018-03-04T03:57:51.534Z,97055
2018-03-04T04:00:19.095Z,97051
2018-03-04T04:02:46.698Z,97057
2018-03-04T04:05:15.029Z,97068
2018-03-04T04:07:42.600Z,97054
2018-03-04T04:10:10.169Z,97060
2018-03-04T04:12:37.752Z,97055
2018-03-04T04:15:07.200Z,97062
2018-03-04T04:17:35.253Z,97060
2018-03-04T04:20:02.819Z,97055
2018-03-04T04:22:30.393Z,97049
2018-03-04T04:24:57.979Z,97058
2018-03-04T04:27:25.573Z,97064
2018-03-04T04:29:53.896Z,97052
2018-03-04T04:32:21.466Z,97051
2018-03-04T04:34:49.075Z,97044
2018-03-04T04:37:17.409Z,97040
2018-03-04T04:39:45.079Z,97040
2018-03-04T04:42:12.613Z,97047
2018-03-04T04:44:40.184Z,97042
2018-03-04T04:47:07.753Z,97045
2018-03-04T04:49:36.700Z,97043
2018-03-04T04:52:05.977Z,97046
2018-03-04T04:54:33.653Z,97049
2018-03-04T04:57:02.007Z,97056
2018-03-04T04:59:29.594Z,97055
2018-03-04T05:01:57.932Z,97058
2018-03-04T05:04:25.564Z,97050
2018-03-04T05:06:53.916Z,97051
2018-03-04T05:09:22.299Z,97052
2018-03-04T05:11:50.685Z,97051
2018-03-04T05:14:19.015Z,97059
2018-03-04T05:16:46.610Z,97058
2018-03-04T05:19:14.991Z,97052
2018-03-04T05:21:43.319Z,97047
2018-03-04T05:24:11.444Z,97048
2018-03-04T05:26:39.832Z,97048
2018-03-04T05:29:08.169Z,97044
2018-03-04T05:31:35.761Z,97044
2018-03-04T05:34:04.104Z,97041
2018-03-04T05:36:31.804Z,97029
2018-03-04T05:39:00.164Z,97024
2018-03-04T05:41:29.394Z,97039
2018-03-04T05:43:57.864Z,97053
2018-03-04T05:46:26.548Z,97039
2018-03-04T05:48:54.882Z,97049
2018-03-04T05:51:22.444Z,97050
2018-03-04T05:53:50.018Z,97048
2018-03-04T05:56:17.583Z,97037
2018-03-04T05:58:45.277Z,97047
2018-03-04T06:01:13.756Z,97047
2018-03-04T06:03:42.092Z,97052
2018-03-04T06:06:09.653Z,97049
2018-03-04T06:08:37.254Z,97050
2018-03-04T06:11:05.344Z,97045
2018-03-04T06:13:33.700Z,97050
2018-03-04T06:16:01.375Z,97045
2018-03-04T06:18:29.728Z,97049
2018-03-04T06:20:57.323Z,97040
2018-03-04T06:23:25.670Z,97034
2018-03-04T06:25:53.370Z,97039
2018-03-04T06:28:21.737Z,97036
2018-03-04T06:30:50.121Z,97046
2018-03-04T06:33:18.455Z,97038
2018-03-04T06:35:46.055Z,97041
2018-03-04T06:38:14.406Z,97035
2018-03-04T06:40:41.994Z,97035
2018-03-04T06:43:10.771Z,97036
2018-03-04T06:45:38.389Z,97029
2018-03-04T06:48:06.893Z,97042
2018-03-04T06:50:35.290Z,97046
2018-03-04T06:53:02.884Z,97037
2018-03-04T06:55:30.648Z,97028
2018-03-04T06:57:58.223Z,97038
2018-03-04T07:00:25.837Z,97041
2018-03-04T07:02:53.609Z,97047
2018-03-04T07:05:21.178Z,97052
2018-03-04T07:07:49.516Z,97050
2018-03-04T07:10:17.104Z,97043
2018-03-04T07:12:44.884Z,97033
2018-03-04T07:15:13.367Z,97033
2018-03-04T07:17:41.719Z,97043
2018-03-04T07:20:09.313Z,97041
2018-03-04T07:22:37.703Z,97044
2018-03-04T07:25:06.684Z,97038
2018-03-04T07:27:35.484Z,97038
2018-03-04T07:30:03.829Z,97040
2018-03-04T07:32:31.522Z,97040
2018-03-04T07:34:59.903Z,97040
2018-03-04T07:37:28.277Z,97044
2018-03-04T07:39:56.742Z,97033
2018-03-04T07:42:24.340Z,97031
2018-03-04T07:44:52.005Z,97042
2018-03-04T07:47:19.585Z,97042
2018-03-04T07:49:47.221Z,97035
2018-03-04T07:52:14.796Z,97036
2018-03-04T07:54:42.376Z,97045
2018-03-04T07:57:09.941Z,97040
2018-03-04T07:59:37.549Z,97025
2018-03-04T08:02:07.332Z,97036
2018-03-04T08:04:35.341Z,97035
2018-03-04T08:07:03.682Z,97026
2018-03-04T08:09:31.404Z,97032
2018-03-04T08:11:59.044Z,97027
2018-03-04T08:14:27.379Z,97051
2018-03-04T08:16:54.963Z,97058
2018-03-04T08:19:23.344Z,97051
2018-03-04T08:21:51.729Z,97060
2018-03-04T08:24:31.996Z,97039
2018-03-04T08:27:12.105Z,97049
2018-03-04T08:29:39.689Z,97038
2018-03-04T08:32:07.918Z,97046
2018-03-04T08:34:36.452Z,97049
2018-03-04T08:37:05.371Z,97042
2018-03-04T08:39:33.040Z,97044
2018-03-04T08:42:01.398Z,97042
2018-03-04T08:44:29.734Z,97045
2018-03-04T08:46:57.340Z,97048
2018-03-04T08:49:25.717Z,97051
2018-03-04T08:51:54.119Z,97068
2018-03-04T08:54:21.765Z,97063
2018-03-04T08:56:49.457Z,97059
2018-03-04T08:59:17.087Z,97051
2018-03-04T09:01:45.420Z,97051
2018-03-04T09:04:13.033Z,97053
2018-03-04T09:06:41.400Z,97056
2018-03-04T09:09:08.996Z,97050
2018-03-04T09:11:37.909Z,97054
2018-03-04T09:14:06.518Z,97060
2018-03-04T09:16:36.149Z,97063
2018-03-04T09:19:03.934Z,97064
2018-03-04T09:21:31.666Z,97059
2018-03-04T09:23:59.336Z,97048
2018-03-04T09:26:26.931Z,97042
2018-03-04T09:28:54.690Z,97033
2018-03-04T09:31:22.271Z,97039
2018-03-04T09:33:49.899Z,97037
2018-03-04T09:36:18.374Z,97050
2018-03-04T09:38:46.763Z,97052
2018-03-04T09:41:15.097Z,97046
2018-03-04T09:43:42.791Z,97051
2018-03-04T09:46:11.151Z,97042
2018-03-04T09:48:38.736Z,97062
2018-03-04T09:51:07.152Z,97035
2018-03-04T09:53:35.410Z,97029
2018-03-04T09:56:03.070Z,97021
2018-03-04T09:58:31.453Z,97020
2018-03-04T10:00:59.922Z,97015
2018-03-04T10:03:28.293Z,97016
2018-03-04T10:05:56.642Z,97026
2018-03-04T10:08:24.271Z,97018
2018-03-04T10:10:51.863Z,97002
2018-03-04T10:13:19.450Z,97006
2018-03-04T10:15:47.116Z,96997
2018-03-04T10:18:14.817Z,97000
2018-03-04T10:20:42.501Z,97016
2018-03-04T10:23:10.112Z,97020
2018-03-04T10:25:38.474Z,97016
2018-03-04T10:28:06.790Z,97022
2018-03-04T10:30:34.472Z,97023
2018-03-04T10:33:02.220Z,97013
2018-03-04T10:35:29.909Z,97028
2018-03-04T10:37:57.554Z,97022
2018-03-04T10:40:25.144Z,96999
2018-03-04T10:42:52.728Z,97007
2018-03-04T10:45:20.438Z,96990
2018-03-04T10:47:48.084Z,96985
2018-03-04T10:50:16.456Z,96985
2018-03-04T10:52:45.020Z,96980
2018-03-04T10:55:12.693Z,96987
2018-03-04T10:57:40.325Z,96976
2018-03-04T11:00:07.913Z,96981
2018-03-04T11:02:38.367Z,96987
2018-03-04T11:05:07.322Z,96989
2018-03-04T11:07:35.331Z,97001
2018-03-04T11:10:03.770Z,96987
2018-03-04T11:12:31.460Z,96984
2018-03-04T11:14:59.856Z,96987
2018-03-04T11:17:27.448Z,96977
2018-03-04T11:19:55.069Z,96996
2018-03-04T11:22:23.409Z,96972
2018-03-04T11:24:51.112Z,96979
2018-03-04T11:27:19.515Z,96972
2018-03-04T11:29:47.098Z,96961
2018-03-04T11:32:14.808Z,96958
2018-03-04T11:34:43.148Z,96953
2018-03-04T11:37:10.852Z,96952
2018-03-04T11:39:39.375Z,96950
2018-03-04T11:42:07.029Z,96952
2018-03-04T11:44:35.391Z,96945
2018-03-04T11:47:03.052Z,96941
2018-03-04T11:49:30.642Z,96930
2018-03-04T11:51:58.385Z,96928
2018-03-04T11:54:26.046Z,96925
2018-03-04T11:56:53.634Z,96925
2018-03-04T11:59:21.215Z,96917
2018-03-04T12:01:48.800Z,96910
2018-03-04T12:04:16.488Z,96915
2018-03-04T12:06:44.872Z,96905
2018-03-04T12:09:12.469Z,96905
2018-03-04T12:11:40.189Z,96913
2018-03-04T12:14:08.527Z,96921
2018-03-04T12:16:37.573Z,96913
2018-03-04T12:19:05.247Z,96906
2018-03-04T12:21:32.835Z,96900
2018-03-04T12:24:00.464Z,96895
2018-03-04T12:26:28.053Z,96895
2018-03-04T12:28:56.440Z,96884
2018-03-04T12:31:24.030Z,96903
2018-03-04T12:33:51.730Z,96902
2018-03-04T12:36:19.365Z,96903
2018-03-04T12:38:47.020Z,96903
2018-03-04T12:41:15.415Z,96896
2018-03-04T12:43:43.923Z,96899
2018-03-04T12:46:11.505Z,96907
2018-03-04T12:48:39.421Z,96910
2018-03-04T12:51:07.768Z,96901
2018-03-04T12:53:36.284Z,96912
2018-03-04T12:56:05.507Z,96898
2018-03-04T12:58:33.145Z,96897
2018-03-04T13:01:01.503Z,96902
2018-03-04T13:03:29.082Z,96887
2018-03-04T13:05:57.482Z,96891
2018-03-04T13:08:25.162Z,96888
2018-03-04T13:10:52.747Z,96900
2018-03-04T13:13:20.334Z,96888
2018-03-04T13:15:47.913Z,96874
2018-03-04T13:18:16.270Z,96871
2018-03-04T13:20:43.848Z,96860
2018-03-04T13:23:12.208Z,96857
2018-03-04T13:25:39.922Z,96858
2018-03-04T13:28:07.497Z,96856
2018-03-04T13:30:35.320Z,96864
2018-03-04T13:33:03.703Z,96848
2018-03-04T13:35:32.222Z,96848
2018-03-04T13:38:00.051Z,96841
2018-03-04T13:40:28.425Z,96852
2018-03-04T13:42:56.094Z,96844
2018-03-04T13:45:24.453Z,96823
2018-03-04T13:47:52.050Z,96844
2018-03-04T13:50:19.642Z,96833
2018-03-04T13:52:47.266Z,96831
2018-03-04T13:55:15.662Z,96829
2018-03-04T13:57:44.108Z,96813
2018-03-04T14:00:11.687Z,96815
2018-03-04T14:02:39.335Z,96797
2018-03-04T14:05:07.038Z,96797
2018-03-04T14:07:34.874Z,96808
2018-03-04T14:10:03.351Z,96799
2018-03-04T14:12:31.747Z,96808
2018-03-04T14:15:00.099Z,96796
2018-03-04T14:17:28.610Z,96795
2018-03-04T14:19:56.261Z,96796
2018-03-04T14:22:24.649Z,96787
2018-03-04T14:24:52.993Z,96792
2018-03-04T14:27:20.664Z,96787
2018-03-04T14:29:48.263Z,96792
2018-03-04T14:32:16.024Z,96798
2018-03-04T14:34:43.680Z,96802
2018-03-04T14:37:12.057Z,96801
2018-03-04T14:39:40.520Z,96797
2018-03-04T14:42:08.185Z,96814
2018-03-04T14:44:36.710Z,96814
2018-03-04T14:47:04.418Z,96813
2018-03-04T14:49:32.220Z,96816
2018-03-04T14:52:00.733Z,96822
2018-03-04T14:54:28.364Z,96826
2018-03-04T14:56:56.727Z,96819
2018-03-04T14:59:25.102Z,96817
2018-03-04T15:01:53.487Z,96823
2018-03-04T15:04:21.973Z,96826
2018-03-04T15:06:50.489Z,96824
2018-03-04T15:09:19.040Z,96831
2018-03-04T15:11:47.413Z,96821
2018-03-04T15:14:15.126Z,96829
2018-03-04T15:16:42.845Z,96820
2018-03-04T15:19:11.229Z,96815
2018-03-04T15:21:39.614Z,96813
2018-03-04T15:24:07.963Z,96811
2018-03-04T15:26:36.837Z,96814
2018-03-04T15:29:04.549Z,96810
2018-03-04T15:31:32.927Z,96815
2018-03-04T15:34:01.401Z,96806
2018-03-04T15:36:29.785Z,96796
2018-03-04T15:38:58.272Z,96789
2018-03-04T15:41:26.682Z,96794
2018-03-04T15:43:54.312Z,96780
2018-03-04T15:46:22.800Z,96788
2018-03-04T15:48:51.162Z,96785
2018-03-04T15:51:18.839Z,96783
2018-03-04T15:53:47.218Z,96783
2018-03-04T15:56:15.593Z,96764
2018-03-04T15:58:44.016Z,96767
2018-03-04T16:01:11.634Z,96761
2018-03-04T16:03:39.281Z,96764
2018-03-04T16:06:07.621Z,96765
2018-03-04T16:08:35.331Z,96752
2018-03-04T16:11:03.001Z,96757
2018-03-04T16:13:31.340Z,96752
2018-03-04T16:15:59.049Z,96747
2018-03-04T16:18:27.565Z,96751
2018-03-04T16:20:55.179Z,96757
2018-03-04T16:23:22.841Z,96748
2018-03-04T16:25:51.214Z,96754
2018-03-04T16:28:18.901Z,96753
2018-03-04T16:30:47.254Z,96756
2018-03-04T16:33:14.860Z,96749
2018-03-04T16:35:42.704Z,96742
2018-03-04T16:38:10.388Z,96752
2018-03-04T16:40:37.972Z,96750
2018-03-04T16:43:06.481Z,96758
2018-03-04T16:45:34.172Z,96763
2018-03-04T16:48:02.523Z,96759
2018-03-04T16:50:30.101Z,96752
2018-03-04T16:52:57.775Z,96754
2018-03-04T16:55:26.177Z,96762
2018-03-04T16:57:54.633Z,96751
2018-03-04T17:00:22.312Z,96751
2018-03-04T17:02:50.662Z,96765
2018-03-04T17:05:19.757Z,96755
2018-03-04T17:07:47.367Z,96758
2018-03-04T17:10:14.974Z,96751
2018-03-04T17:12:42.670Z,96736
2018-03-04T17:15:11.101Z,96742
2018-03-04T17:17:38.729Z,96747
2018-03-04T17:20:07.653Z,96727
2018-03-04T17:22:35.296Z,96728
2018-03-04T17:25:02.910Z,96740
2018-03-04T17:27:30.496Z,96749
2018-03-04T17:29:58.981Z,96757
2018-03-04T17:32:27.329Z,96752
2018-03-04T17:34:55.068Z,96757
2018-03-04T17:37:22.734Z,96745
2018-03-04T17:39:50.450Z,96740
2018-03-04T17:42:18.958Z,96746
2018-03-04T17:44:46.743Z,96748
2018-03-04T17:47:14.354Z,96739
2018-03-04T17:49:42.137Z,96750
2018-03-04T17:52:09.727Z,96767
2018-03-04T17:54:37.480Z,96769
2018-03-04T17:57:06.239Z,96771
2018-03-04T17:59:33.841Z,96754
2018-03-04T18:02:01.556Z,96760
2018-03-04T18:04:29.914Z,96761
2018-03-04T18:06:57.493Z,96761
2018-03-04T18:09:25.903Z,96748
2018-03-04T18:11:53.553Z,96753
2018-03-04T18:14:21.934Z,96754
2018-03-04T18:16:50.314Z,96760
2018-03-04T18:19:18.782Z,96747
2018-03-04T18:21:47.157Z,96745
2018-03-04T18:24:15.521Z,96739
2018-03-04T18:26:44.717Z,96755
2018-03-04T18:29:12.298Z,96743
2018-03-04T18:31:40.911Z,96730
2018-03-04T18:34:08.580Z,96735
2018-03-04T18:36:36.814Z,96722
2018-03-04T18:39:04.385Z,96710
2018-03-04T18:41:32.782Z,96718
2018-03-04T18:44:00.518Z,96707
2018-03-04T18:46:28.308Z,96716
2018-03-04T18:48:55.975Z,96706
2018-03-04T18:51:24.427Z,96701
2018-03-04T18:53:52.186Z,96690
2018-03-04T18:56:19.908Z,96688
2018-03-04T18:58:47.539Z,96689
2018-03-04T19:01:16.014Z,96690
2018-03-04T19:03:45.405Z,96684
2018-03-04T19:06:13.000Z,96665
2018-03-04T19:08:40.608Z,96664
2018-03-04T19:11:08.180Z,96675
2018-03-04T19:13:35.773Z,96672
2018-03-04T19:16:04.112Z,96681
2018-03-04T19:18:31.694Z,96687
2018-03-04T19:20:59.276Z,96687
2018-03-04T19:23:27.638Z,96673
2018-03-04T19:25:56.024Z,96682
2018-03-04T19:28:24.378Z,96682
2018-03-04T19:30:52.999Z,96674
2018-03-04T19:33:20.815Z,96685
2018-03-04T19:35:48.631Z,96682
2018-03-04T19:38:16.333Z,96680
2018-03-04T19:40:44.259Z,96691
2018-03-04T19:43:12.796Z,96670
2018-03-04T19:45:40.399Z,96674
2018-03-04T19:48:08.865Z,96671
2018-03-04T19:50:37.887Z,96663
2018-03-04T19:53:06.559Z,96663
2018-03-04T19:55:35.377Z,96679
2018-03-04T19:58:03.007Z,96681
2018-03-04T20:00:31.396Z,96682
2018-03-04T20:02:59.742Z,96703
2018-03-04T20:05:27.327Z,96712
2018-03-04T20:07:55.716Z,96716
2018-03-04T20:10:24.203Z,96724
2018-03-04T20:12:52.573Z,96716
2018-03-04T20:15:20.964Z,96719
2018-03-04T20:17:49.309Z,96712
2018-03-04T20:20:16.887Z,96714
2018-03-04T20:22:44.557Z,96726
2018-03-04T20:25:12.953Z,96719
2018-03-04T20:27:40.590Z,96716
2018-03-04T20:30:08.231Z,96710
2018-03-04T20:32:37.333Z,96716
2018-03-04T20:35:05.320Z,96723
2018-03-04T20:37:33.207Z,96726
2018-03-04T20:40:01.540Z,96726
2018-03-04T20:42:29.122Z,96720
2018-03-04T20:44:57.508Z,96741
2018-03-04T20:47:25.180Z,96735
2018-03-04T20:49:53.517Z,96725
2018-03-04T20:52:21.095Z,96730
2018-03-04T20:54:48.760Z,96745
2018-03-04T20:57:16.455Z,96747
2018-03-04T20:59:44.800Z,96741
2018-03-04T21:02:12.410Z,96749
2018-03-04T21:04:40.058Z,96725
2018-03-04T21:07:08.538Z,96734
2018-03-04T21:09:36.876Z,96729
2018-03-04T21:12:04.458Z,96735
2018-03-04T21:14:32.231Z,96746
2018-03-04T21:17:00.701Z,96754
2018-03-04T21:19:28.275Z,96745
2018-03-04T21:21:56.660Z,96745
2018-03-04T21:24:25.026Z,96751
2018-03-04T21:26:52.701Z,96743
2018-03-04T21:29:21.097Z,96745
2018-03-04T21:31:48.641Z,96746
2018-03-04T21:34:17.018Z,96735
2018-03-04T21:36:45.394Z,96712
2018-03-04T21:39:13.766Z,96707
2018-03-04T21:41:41.356Z,96680
2018-03-04T21:44:09.093Z,96672
2018-03-04T21:46:37.976Z,96659
2018-03-04T21:49:06.537Z,96655
2018-03-04T21:51:34.221Z,96645
2018-03-04T21:54:01.806Z,96658
2018-03-04T21:56:30.152Z,96661
2018-03-04T21:58:57.716Z,96672
2018-03-04T22:01:25.295Z,96676
2018-03-04T22:03:52.972Z,96683
2018-03-04T22:06:21.317Z,96691
2018-03-04T22:08:48.901Z,96691
2018-03-04T22:11:17.303Z,96699
2018-03-04T22:13:44.916Z,96690
2018-03-04T22:16:12.504Z,96720
2018-03-04T22:18:40.846Z,96696
2018-03-04T22:21:08.424Z,96710
2018-03-04T22:23:36.920Z,96721
2018-03-04T22:26:05.322Z,96716
2018-03-04T22:28:32.975Z,96722
2018-03-04T22:31:01.336Z,96703
2018-03-04T22:33:29.030Z,96718
2018-03-04T22:35:56.706Z,96692
2018-03-04T22:38:24.276Z,96679
2018-03-04T22:40:51.899Z,96691
2018-03-04T22:43:20.278Z,96712
2018-03-04T22:45:48.660Z,96698
2018-03-04T22:48:17.009Z,96695
2018-03-04T22:50:44.817Z,96684
2018-03-04T22:53:13.166Z,96685
2018-03-04T22:55:40.838Z,96695
2018-03-04T22:58:08.502Z,96699
2018-03-04T23:00:36.574Z,96706
2018-03-04T23:03:04.242Z,96695
2018-03-04T23:05:32.586Z,96718
2018-03-04T23:08:00.178Z,96716
2018-03-04T23:10:27.836Z,96704
2018-03-04T23:12:57.145Z,96719
2018-03-04T23:15:24.743Z,96713
2018-03-04T23:17:52.370Z,96727
2018-03-04T23:20:20.750Z,96747
2018-03-04T23:22:49.217Z,96766
2018-03-04T23:25:16.835Z,96782
2018-03-04T23:27:44.413Z,96781
2018-03-04T23:30:11.992Z,96785
2018-03-04T23:32:39.673Z,96779
2018-03-04T23:35:07.345Z,96783
2018-03-04T23:37:36.595Z,96787
2018-03-04T23:40:04.174Z,96782
2018-03-04T23:42:31.747Z,96778
2018-03-04T23:44:59.424Z,96781
2018-03-04T23:47:26.998Z,96773
2018-03-04T23:49:55.352Z,96788
2018-03-04T23:52:22.915Z,96774
2018-03-04T23:54:50.585Z,96788
2018-03-04T23:57:18.968Z,96780
2018-03-04T23:59:46.551Z,96784
